sensor_id;sensor_type;location;lat;lon;timestamp;P1;durP1;ratioP1;P2;durP2;ratioP2
53293;SDS011;39181;53.440;5.644;2023-01-10T00:00:21;36.35;;;4.45;;
53293;SDS011;39181;53.440;5.644;2023-01-10T00:02:47;25.67;;;3.35;;
53293;SDS011;39181;53.440;5.644;2023-01-10T00:05:14;28.65;;;3.25;;
53293;SDS011;39181;53.440;5.644;2023-01-10T00:07:40;28.63;;;3.75;;
53293;SDS011;39181;53.440;5.644;2023-01-10T00:10:05;30.95;;;3.70;;
53293;SDS011;39181;53.440;5.644;2023-01-10T00:12:31;29.20;;;3.45;;
53293;SDS011;39181;53.440;5.644;2023-01-10T00:15:16;33.72;;;3.00;;
53293;SDS011;39181;53.440;5.644;2023-01-10T00:17:41;25.60;;;3.38;;
53293;SDS011;39181;53.440;5.644;2023-01-10T00:20:07;28.33;;;3.20;;
53293;SDS011;39181;53.440;5.644;2023-01-10T00:22:33;24.27;;;2.90;;
53293;SDS011;39181;53.440;5.644;2023-01-10T00:24:59;26.65;;;2.95;;
53293;SDS011;39181;53.440;5.644;2023-01-10T00:27:24;19.33;;;2.58;;
53293;SDS011;39181;53.440;5.644;2023-01-10T00:29:50;17.00;;;4.03;;
53293;SDS011;39181;53.440;5.644;2023-01-10T00:32:16;21.73;;;3.03;;
53293;SDS011;39181;53.440;5.644;2023-01-10T00:34:43;23.88;;;3.33;;
53293;SDS011;39181;53.440;5.644;2023-01-10T00:37:08;19.45;;;2.67;;
53293;SDS011;39181;53.440;5.644;2023-01-10T00:39:34;20.38;;;3.58;;
53293;SDS011;39181;53.440;5.644;2023-01-10T00:41:59;25.88;;;3.65;;
53293;SDS011;39181;53.440;5.644;2023-01-10T00:44:43;16.15;;;2.40;;
53293;SDS011;39181;53.440;5.644;2023-01-10T00:47:11;27.63;;;4.20;;
53293;SDS011;39181;53.440;5.644;2023-01-10T00:49:37;19.27;;;2.78;;
53293;SDS011;39181;53.440;5.644;2023-01-10T00:52:03;18.83;;;3.03;;
53293;SDS011;39181;53.440;5.644;2023-01-10T00:54:29;24.20;;;3.15;;
53293;SDS011;39181;53.440;5.644;2023-01-10T00:56:54;21.50;;;3.63;;
53293;SDS011;39181;53.440;5.644;2023-01-10T00:59:20;42.00;;;4.10;;
53293;SDS011;39181;53.440;5.644;2023-01-10T01:01:47;16.90;;;3.45;;
53293;SDS011;39181;53.440;5.644;2023-01-10T01:04:13;25.35;;;2.70;;
53293;SDS011;39181;53.440;5.644;2023-01-10T01:06:38;28.85;;;3.67;;
53293;SDS011;39181;53.440;5.644;2023-01-10T01:09:04;27.85;;;2.55;;
53293;SDS011;39181;53.440;5.644;2023-01-10T01:11:30;28.23;;;3.72;;
53293;SDS011;39181;53.440;5.644;2023-01-10T01:13:55;23.38;;;3.30;;
53293;SDS011;39181;53.440;5.644;2023-01-10T01:16:21;22.80;;;3.42;;
53293;SDS011;39181;53.440;5.644;2023-01-10T01:18:47;22.65;;;2.95;;
53293;SDS011;39181;53.440;5.644;2023-01-10T01:21:12;26.30;;;3.65;;
53293;SDS011;39181;53.440;5.644;2023-01-10T01:23:38;28.38;;;3.60;;
53293;SDS011;39181;53.440;5.644;2023-01-10T01:26:03;19.90;;;2.22;;
53293;SDS011;39181;53.440;5.644;2023-01-10T01:28:30;17.02;;;2.20;;
53293;SDS011;39181;53.440;5.644;2023-01-10T01:30:56;16.95;;;2.72;;
53293;SDS011;39181;53.440;5.644;2023-01-10T01:33:21;18.67;;;2.72;;
53293;SDS011;39181;53.440;5.644;2023-01-10T01:35:47;12.13;;;1.98;;
53293;SDS011;39181;53.440;5.644;2023-01-10T01:38:14;12.07;;;2.28;;
53293;SDS011;39181;53.440;5.644;2023-01-10T01:40:40;12.52;;;1.60;;
53293;SDS011;39181;53.440;5.644;2023-01-10T01:43:21;13.00;;;1.65;;
53293;SDS011;39181;53.440;5.644;2023-01-10T01:45:47;12.13;;;1.50;;
53293;SDS011;39181;53.440;5.644;2023-01-10T01:48:17;13.82;;;1.77;;
53293;SDS011;39181;53.440;5.644;2023-01-10T01:53:42;15.73;;;2.22;;
53293;SDS011;39181;53.440;5.644;2023-01-10T01:58:46;8.38;;;1.30;;
53293;SDS011;39181;53.440;5.644;2023-01-10T02:01:16;12.90;;;1.90;;
53293;SDS011;39181;53.440;5.644;2023-01-10T02:03:44;8.80;;;1.50;;
53293;SDS011;39181;53.440;5.644;2023-01-10T02:06:14;13.52;;;1.40;;
53293;SDS011;39181;53.440;5.644;2023-01-10T02:08:43;17.17;;;2.17;;
53293;SDS011;39181;53.440;5.644;2023-01-10T02:11:14;13.55;;;2.45;;
53293;SDS011;39181;53.440;5.644;2023-01-10T02:13:40;16.00;;;2.17;;
53293;SDS011;39181;53.440;5.644;2023-01-10T02:16:08;12.20;;;2.47;;
53293;SDS011;39181;53.440;5.644;2023-01-10T02:18:36;24.08;;;2.90;;
53293;SDS011;39181;53.440;5.644;2023-01-10T02:24:06;17.45;;;3.05;;
53293;SDS011;39181;53.440;5.644;2023-01-10T02:26:58;17.25;;;2.38;;
53293;SDS011;39181;53.440;5.644;2023-01-10T02:37:40;17.25;;;2.10;;
53293;SDS011;39181;53.440;5.644;2023-01-10T02:40:23;16.88;;;1.65;;
53293;SDS011;39181;53.440;5.644;2023-01-10T02:45:34;17.30;;;1.90;;
53293;SDS011;39181;53.440;5.644;2023-01-10T02:48:04;16.00;;;1.90;;
53293;SDS011;39181;53.440;5.644;2023-01-10T02:52:56;23.45;;;2.35;;
53293;SDS011;39181;53.440;5.644;2023-01-10T02:55:27;22.40;;;3.22;;
53293;SDS011;39181;53.440;5.644;2023-01-10T02:58:28;21.45;;;2.67;;
53293;SDS011;39181;53.440;5.644;2023-01-10T03:01:05;26.55;;;2.95;;
53293;SDS011;39181;53.440;5.644;2023-01-10T03:03:51;18.50;;;2.88;;
53293;SDS011;39181;53.440;5.644;2023-01-10T03:06:28;27.75;;;3.75;;
53293;SDS011;39181;53.440;5.644;2023-01-10T03:11:49;26.80;;;3.75;;
53293;SDS011;39181;53.440;5.644;2023-01-10T03:14:20;35.67;;;4.43;;
53293;SDS011;39181;53.440;5.644;2023-01-10T03:16:50;18.08;;;2.53;;
53293;SDS011;39181;53.440;5.644;2023-01-10T03:19:20;35.08;;;3.60;;
53293;SDS011;39181;53.440;5.644;2023-01-10T03:21:48;31.83;;;3.17;;
53293;SDS011;39181;53.440;5.644;2023-01-10T03:24:21;32.03;;;3.28;;
53293;SDS011;39181;53.440;5.644;2023-01-10T03:26:55;33.55;;;3.42;;
53293;SDS011;39181;53.440;5.644;2023-01-10T03:29:35;21.20;;;2.55;;
53293;SDS011;39181;53.440;5.644;2023-01-10T03:32:20;11.80;;;1.42;;
53293;SDS011;39181;53.440;5.644;2023-01-10T03:34:49;8.38;;;1.42;;
53293;SDS011;39181;53.440;5.644;2023-01-10T03:37:17;11.75;;;1.63;;
53293;SDS011;39181;53.440;5.644;2023-01-10T03:40:07;19.67;;;2.72;;
53293;SDS011;39181;53.440;5.644;2023-01-10T03:45:42;19.67;;;2.58;;
53293;SDS011;39181;53.440;5.644;2023-01-10T03:48:15;26.00;;;2.65;;
53293;SDS011;39181;53.440;5.644;2023-01-10T03:50:43;23.40;;;3.30;;
53293;SDS011;39181;53.440;5.644;2023-01-10T03:53:11;30.17;;;3.20;;
53293;SDS011;39181;53.440;5.644;2023-01-10T03:55:38;20.77;;;2.65;;
53293;SDS011;39181;53.440;5.644;2023-01-10T03:58:06;20.92;;;2.92;;
53293;SDS011;39181;53.440;5.644;2023-01-10T04:00:32;20.65;;;2.92;;
53293;SDS011;39181;53.440;5.644;2023-01-10T04:02:57;15.02;;;2.83;;
53293;SDS011;39181;53.440;5.644;2023-01-10T04:05:23;22.27;;;3.45;;
53293;SDS011;39181;53.440;5.644;2023-01-10T04:07:49;27.63;;;2.97;;
53293;SDS011;39181;53.440;5.644;2023-01-10T04:10:15;21.60;;;3.20;;
53293;SDS011;39181;53.440;5.644;2023-01-10T04:12:40;24.73;;;4.82;;
53293;SDS011;39181;53.440;5.644;2023-01-10T04:15:06;17.70;;;3.13;;
53293;SDS011;39181;53.440;5.644;2023-01-10T04:17:32;22.90;;;2.92;;
53293;SDS011;39181;53.440;5.644;2023-01-10T04:19:58;26.30;;;2.95;;
53293;SDS011;39181;53.440;5.644;2023-01-10T04:22:23;29.73;;;3.95;;
53293;SDS011;39181;53.440;5.644;2023-01-10T04:24:49;18.08;;;2.67;;
53293;SDS011;39181;53.440;5.644;2023-01-10T04:27:19;10.63;;;1.73;;
53293;SDS011;39181;53.440;5.644;2023-01-10T04:29:45;5.43;;;0.88;;
53293;SDS011;39181;53.440;5.644;2023-01-10T04:32:11;4.45;;;0.60;;
53293;SDS011;39181;53.440;5.644;2023-01-10T04:34:36;10.45;;;0.73;;
53293;SDS011;39181;53.440;5.644;2023-01-10T04:37:02;7.65;;;1.00;;
53293;SDS011;39181;53.440;5.644;2023-01-10T04:39:27;8.77;;;1.40;;
53293;SDS011;39181;53.440;5.644;2023-01-10T04:41:53;15.93;;;2.03;;
53293;SDS011;39181;53.440;5.644;2023-01-10T04:44:18;28.77;;;3.67;;
53293;SDS011;39181;53.440;5.644;2023-01-10T04:46:44;37.20;;;3.42;;
53293;SDS011;39181;53.440;5.644;2023-01-10T04:49:10;31.77;;;3.80;;
53293;SDS011;39181;53.440;5.644;2023-01-10T04:51:35;26.00;;;3.15;;
53293;SDS011;39181;53.440;5.644;2023-01-10T04:54:01;37.20;;;3.55;;
53293;SDS011;39181;53.440;5.644;2023-01-10T04:56:27;51.13;;;4.28;;
53293;SDS011;39181;53.440;5.644;2023-01-10T04:58:52;44.50;;;5.20;;
53293;SDS011;39181;53.440;5.644;2023-01-10T05:01:19;40.97;;;3.95;;
53293;SDS011;39181;53.440;5.644;2023-01-10T05:03:47;39.63;;;4.60;;
53293;SDS011;39181;53.440;5.644;2023-01-10T05:06:17;40.00;;;4.28;;
53293;SDS011;39181;53.440;5.644;2023-01-10T05:08:43;30.70;;;4.13;;
53293;SDS011;39181;53.440;5.644;2023-01-10T05:11:09;28.25;;;3.58;;
53293;SDS011;39181;53.440;5.644;2023-01-10T05:13:35;29.75;;;3.35;;
53293;SDS011;39181;53.440;5.644;2023-01-10T05:16:00;34.58;;;4.57;;
53293;SDS011;39181;53.440;5.644;2023-01-10T05:18:27;43.67;;;3.70;;
53293;SDS011;39181;53.440;5.644;2023-01-10T05:20:58;35.78;;;4.03;;
53293;SDS011;39181;53.440;5.644;2023-01-10T05:23:24;38.60;;;3.33;;
53293;SDS011;39181;53.440;5.644;2023-01-10T05:25:50;36.97;;;3.38;;
53293;SDS011;39181;53.440;5.644;2023-01-10T05:28:15;27.45;;;3.38;;
53293;SDS011;39181;53.440;5.644;2023-01-10T05:30:41;30.05;;;3.50;;
53293;SDS011;39181;53.440;5.644;2023-01-10T05:33:06;24.67;;;2.58;;
53293;SDS011;39181;53.440;5.644;2023-01-10T05:35:32;28.35;;;3.78;;
53293;SDS011;39181;53.440;5.644;2023-01-10T05:37:58;33.20;;;3.67;;
53293;SDS011;39181;53.440;5.644;2023-01-10T05:40:24;24.52;;;2.85;;
53293;SDS011;39181;53.440;5.644;2023-01-10T05:42:49;26.75;;;2.55;;
53293;SDS011;39181;53.440;5.644;2023-01-10T05:45:15;22.83;;;2.88;;
53293;SDS011;39181;53.440;5.644;2023-01-10T05:47:40;15.60;;;2.13;;
53293;SDS011;39181;53.440;5.644;2023-01-10T05:50:06;29.00;;;3.13;;
53293;SDS011;39181;53.440;5.644;2023-01-10T05:52:33;25.20;;;3.30;;
53293;SDS011;39181;53.440;5.644;2023-01-10T05:54:58;24.73;;;3.42;;
53293;SDS011;39181;53.440;5.644;2023-01-10T05:57:24;28.63;;;2.90;;
53293;SDS011;39181;53.440;5.644;2023-01-10T05:59:50;27.42;;;2.45;;
53293;SDS011;39181;53.440;5.644;2023-01-10T06:02:15;21.48;;;3.00;;
53293;SDS011;39181;53.440;5.644;2023-01-10T06:04:41;20.38;;;2.65;;
53293;SDS011;39181;53.440;5.644;2023-01-10T06:07:07;32.63;;;3.95;;
53293;SDS011;39181;53.440;5.644;2023-01-10T06:09:33;22.63;;;2.90;;
53293;SDS011;39181;53.440;5.644;2023-01-10T06:11:58;26.20;;;2.63;;
53293;SDS011;39181;53.440;5.644;2023-01-10T06:14:24;28.98;;;3.85;;
53293;SDS011;39181;53.440;5.644;2023-01-10T06:16:50;27.00;;;4.15;;
53293;SDS011;39181;53.440;5.644;2023-01-10T06:19:16;28.52;;;3.05;;
53293;SDS011;39181;53.440;5.644;2023-01-10T06:21:41;33.95;;;3.50;;
53293;SDS011;39181;53.440;5.644;2023-01-10T06:24:07;21.17;;;3.15;;
53293;SDS011;39181;53.440;5.644;2023-01-10T06:26:33;31.70;;;3.05;;
53293;SDS011;39181;53.440;5.644;2023-01-10T06:28:58;31.00;;;2.95;;
53293;SDS011;39181;53.440;5.644;2023-01-10T06:31:24;27.63;;;2.83;;
53293;SDS011;39181;53.440;5.644;2023-01-10T06:33:50;35.33;;;3.67;;
53293;SDS011;39181;53.440;5.644;2023-01-10T06:36:16;24.65;;;2.65;;
53293;SDS011;39181;53.440;5.644;2023-01-10T06:38:42;28.75;;;4.10;;
53293;SDS011;39181;53.440;5.644;2023-01-10T06:41:09;34.05;;;4.95;;
53293;SDS011;39181;53.440;5.644;2023-01-10T06:43:40;25.75;;;5.20;;
53293;SDS011;39181;53.440;5.644;2023-01-10T06:46:10;37.72;;;4.43;;
53293;SDS011;39181;53.440;5.644;2023-01-10T06:48:37;22.75;;;3.08;;
53293;SDS011;39181;53.440;5.644;2023-01-10T06:51:03;32.55;;;3.65;;
53293;SDS011;39181;53.440;5.644;2023-01-10T06:53:29;24.33;;;2.85;;
53293;SDS011;39181;53.440;5.644;2023-01-10T06:55:55;33.80;;;3.30;;
53293;SDS011;39181;53.440;5.644;2023-01-10T06:58:21;24.80;;;3.22;;
53293;SDS011;39181;53.440;5.644;2023-01-10T07:00:48;22.20;;;2.42;;
53293;SDS011;39181;53.440;5.644;2023-01-10T07:03:14;20.83;;;3.20;;
53293;SDS011;39181;53.440;5.644;2023-01-10T07:05:39;21.40;;;2.92;;
53293;SDS011;39181;53.440;5.644;2023-01-10T07:08:05;24.08;;;2.90;;
53293;SDS011;39181;53.440;5.644;2023-01-10T07:10:30;25.42;;;3.00;;
53293;SDS011;39181;53.440;5.644;2023-01-10T07:12:56;30.60;;;3.08;;
53293;SDS011;39181;53.440;5.644;2023-01-10T07:15:22;31.95;;;3.05;;
53293;SDS011;39181;53.440;5.644;2023-01-10T07:17:48;37.55;;;3.30;;
53293;SDS011;39181;53.440;5.644;2023-01-10T07:20:14;20.45;;;2.75;;
53293;SDS011;39181;53.440;5.644;2023-01-10T07:22:39;19.77;;;3.00;;
53293;SDS011;39181;53.440;5.644;2023-01-10T07:25:05;21.83;;;2.65;;
53293;SDS011;39181;53.440;5.644;2023-01-10T07:27:31;20.88;;;2.63;;
53293;SDS011;39181;53.440;5.644;2023-01-10T07:29:57;29.52;;;2.92;;
53293;SDS011;39181;53.440;5.644;2023-01-10T07:32:23;28.42;;;2.97;;
53293;SDS011;39181;53.440;5.644;2023-01-10T07:34:49;25.45;;;3.40;;
53293;SDS011;39181;53.440;5.644;2023-01-10T07:37:15;27.80;;;3.50;;
53293;SDS011;39181;53.440;5.644;2023-01-10T07:39:40;22.50;;;3.40;;
53293;SDS011;39181;53.440;5.644;2023-01-10T07:42:07;26.25;;;3.65;;
53293;SDS011;39181;53.440;5.644;2023-01-10T07:44:33;33.63;;;4.30;;
53293;SDS011;39181;53.440;5.644;2023-01-10T07:46:59;25.80;;;3.33;;
53293;SDS011;39181;53.440;5.644;2023-01-10T07:49:25;35.83;;;3.65;;
53293;SDS011;39181;53.440;5.644;2023-01-10T07:51:50;30.58;;;4.03;;
53293;SDS011;39181;53.440;5.644;2023-01-10T07:54:16;34.42;;;4.78;;
53293;SDS011;39181;53.440;5.644;2023-01-10T07:56:41;31.65;;;4.28;;
53293;SDS011;39181;53.440;5.644;2023-01-10T07:59:07;32.13;;;3.97;;
53293;SDS011;39181;53.440;5.644;2023-01-10T08:01:33;34.55;;;3.75;;
53293;SDS011;39181;53.440;5.644;2023-01-10T08:03:58;27.20;;;4.47;;
53293;SDS011;39181;53.440;5.644;2023-01-10T08:06:24;44.75;;;4.65;;
53293;SDS011;39181;53.440;5.644;2023-01-10T08:08:49;26.65;;;3.67;;
53293;SDS011;39181;53.440;5.644;2023-01-10T08:11:15;28.92;;;3.65;;
53293;SDS011;39181;53.440;5.644;2023-01-10T08:13:40;22.45;;;3.47;;
53293;SDS011;39181;53.440;5.644;2023-01-10T08:16:06;31.20;;;4.05;;
53293;SDS011;39181;53.440;5.644;2023-01-10T08:18:33;31.27;;;3.60;;
53293;SDS011;39181;53.440;5.644;2023-01-10T08:20:58;29.08;;;3.58;;
53293;SDS011;39181;53.440;5.644;2023-01-10T08:23:24;26.45;;;4.10;;
53293;SDS011;39181;53.440;5.644;2023-01-10T08:25:50;21.02;;;3.13;;
53293;SDS011;39181;53.440;5.644;2023-01-10T08:28:16;15.25;;;2.85;;
53293;SDS011;39181;53.440;5.644;2023-01-10T08:30:42;27.67;;;3.15;;
53293;SDS011;39181;53.440;5.644;2023-01-10T08:33:08;23.15;;;3.33;;
53293;SDS011;39181;53.440;5.644;2023-01-10T08:35:36;22.05;;;3.15;;
53293;SDS011;39181;53.440;5.644;2023-01-10T08:38:06;22.20;;;3.03;;
53293;SDS011;39181;53.440;5.644;2023-01-10T08:40:32;18.77;;;3.60;;
53293;SDS011;39181;53.440;5.644;2023-01-10T08:43:02;23.48;;;3.85;;
53293;SDS011;39181;53.440;5.644;2023-01-10T08:45:29;27.20;;;3.78;;
53293;SDS011;39181;53.440;5.644;2023-01-10T08:47:55;21.30;;;2.97;;
53293;SDS011;39181;53.440;5.644;2023-01-10T08:50:21;32.67;;;5.07;;
53293;SDS011;39181;53.440;5.644;2023-01-10T08:52:47;21.98;;;3.55;;
53293;SDS011;39181;53.440;5.644;2023-01-10T08:55:13;17.67;;;2.63;;
53293;SDS011;39181;53.440;5.644;2023-01-10T08:57:38;21.75;;;2.78;;
53293;SDS011;39181;53.440;5.644;2023-01-10T09:00:04;17.88;;;2.75;;
53293;SDS011;39181;53.440;5.644;2023-01-10T09:02:30;25.33;;;2.72;;
53293;SDS011;39181;53.440;5.644;2023-01-10T09:04:56;19.13;;;3.33;;
53293;SDS011;39181;53.440;5.644;2023-01-10T09:07:21;22.63;;;3.88;;
53293;SDS011;39181;53.440;5.644;2023-01-10T09:09:47;25.73;;;3.35;;
53293;SDS011;39181;53.440;5.644;2023-01-10T09:12:12;28.38;;;3.20;;
53293;SDS011;39181;53.440;5.644;2023-01-10T09:14:57;22.63;;;3.50;;
53293;SDS011;39181;53.440;5.644;2023-01-10T09:17:23;24.83;;;4.15;;
53293;SDS011;39181;53.440;5.644;2023-01-10T09:19:48;25.38;;;3.40;;
53293;SDS011;39181;53.440;5.644;2023-01-10T09:22:14;22.77;;;3.22;;
53293;SDS011;39181;53.440;5.644;2023-01-10T09:24:40;22.52;;;3.92;;
53293;SDS011;39181;53.440;5.644;2023-01-10T09:27:07;25.35;;;3.67;;
53293;SDS011;39181;53.440;5.644;2023-01-10T09:29:34;22.42;;;3.83;;
53293;SDS011;39181;53.440;5.644;2023-01-10T09:31:59;36.88;;;4.18;;
53293;SDS011;39181;53.440;5.644;2023-01-10T09:34:25;22.95;;;3.33;;
53293;SDS011;39181;53.440;5.644;2023-01-10T09:36:51;22.13;;;2.78;;
53293;SDS011;39181;53.440;5.644;2023-01-10T09:39:18;32.00;;;3.70;;
53293;SDS011;39181;53.440;5.644;2023-01-10T09:47:25;34.47;;;4.93;;
53293;SDS011;39181;53.440;5.644;2023-01-10T09:52:39;26.10;;;3.22;;
53293;SDS011;39181;53.440;5.644;2023-01-10T09:57:55;26.38;;;4.30;;
53293;SDS011;39181;53.440;5.644;2023-01-10T10:00:26;29.35;;;3.92;;
53293;SDS011;39181;53.440;5.644;2023-01-10T10:02:59;27.70;;;3.45;;
53293;SDS011;39181;53.440;5.644;2023-01-10T10:05:28;30.25;;;3.78;;
53293;SDS011;39181;53.440;5.644;2023-01-10T10:07:58;17.20;;;2.55;;
53293;SDS011;39181;53.440;5.644;2023-01-10T10:10:29;25.70;;;3.58;;
53293;SDS011;39181;53.440;5.644;2023-01-10T10:15:45;24.98;;;3.47;;
53293;SDS011;39181;53.440;5.644;2023-01-10T10:24:09;36.70;;;3.63;;
53293;SDS011;39181;53.440;5.644;2023-01-10T10:26:57;25.52;;;3.10;;
53293;SDS011;39181;53.440;5.644;2023-01-10T10:29:36;22.58;;;3.10;;
53293;SDS011;39181;53.440;5.644;2023-01-10T10:37:26;28.55;;;3.63;;
53293;SDS011;39181;53.440;5.644;2023-01-10T10:40:00;18.85;;;3.30;;
53293;SDS011;39181;53.440;5.644;2023-01-10T10:42:32;19.42;;;2.72;;
53293;SDS011;39181;53.440;5.644;2023-01-10T10:45:05;24.95;;;3.67;;
53293;SDS011;39181;53.440;5.644;2023-01-10T10:47:35;19.75;;;3.13;;
53293;SDS011;39181;53.440;5.644;2023-01-10T10:50:07;27.73;;;3.50;;
53293;SDS011;39181;53.440;5.644;2023-01-10T10:52:52;22.17;;;3.97;;
53293;SDS011;39181;53.440;5.644;2023-01-10T10:55:18;19.05;;;3.95;;
53293;SDS011;39181;53.440;5.644;2023-01-10T10:57:51;22.75;;;4.43;;
53293;SDS011;39181;53.440;5.644;2023-01-10T11:00:18;23.42;;;3.35;;
53293;SDS011;39181;53.440;5.644;2023-01-10T11:02:47;21.27;;;2.92;;
53293;SDS011;39181;53.440;5.644;2023-01-10T11:05:18;19.80;;;2.85;;
53293;SDS011;39181;53.440;5.644;2023-01-10T11:07:47;21.35;;;3.85;;
53293;SDS011;39181;53.440;5.644;2023-01-10T11:10:20;29.73;;;3.65;;
53293;SDS011;39181;53.440;5.644;2023-01-10T11:13:01;27.33;;;4.55;;
53293;SDS011;39181;53.440;5.644;2023-01-10T11:15:45;24.33;;;3.58;;
53293;SDS011;39181;53.440;5.644;2023-01-10T11:18:14;18.13;;;4.07;;
53293;SDS011;39181;53.440;5.644;2023-01-10T11:20:57;26.90;;;3.85;;
53293;SDS011;39181;53.440;5.644;2023-01-10T11:26:07;27.05;;;3.45;;
53293;SDS011;39181;53.440;5.644;2023-01-10T11:28:46;17.25;;;3.90;;
53293;SDS011;39181;53.440;5.644;2023-01-10T11:31:12;27.08;;;4.13;;
53293;SDS011;39181;53.440;5.644;2023-01-10T11:33:37;25.23;;;3.00;;
53293;SDS011;39181;53.440;5.644;2023-01-10T11:36:06;31.85;;;3.60;;
53293;SDS011;39181;53.440;5.644;2023-01-10T11:38:34;34.63;;;5.32;;
53293;SDS011;39181;53.440;5.644;2023-01-10T11:43:41;37.55;;;5.35;;
53293;SDS011;39181;53.440;5.644;2023-01-10T11:49:00;27.15;;;4.15;;
53293;SDS011;39181;53.440;5.644;2023-01-10T11:51:35;29.58;;;4.15;;
53293;SDS011;39181;53.440;5.644;2023-01-10T11:54:21;30.38;;;4.00;;
53293;SDS011;39181;53.440;5.644;2023-01-10T11:56:54;31.80;;;4.53;;
53293;SDS011;39181;53.440;5.644;2023-01-10T11:59:22;34.00;;;4.65;;
53293;SDS011;39181;53.440;5.644;2023-01-10T12:01:55;33.90;;;4.70;;
53293;SDS011;39181;53.440;5.644;2023-01-10T12:04:24;24.80;;;3.47;;
53293;SDS011;39181;53.440;5.644;2023-01-10T12:06:53;32.20;;;5.15;;
53293;SDS011;39181;53.440;5.644;2023-01-10T12:09:38;27.88;;;5.00;;
53293;SDS011;39181;53.440;5.644;2023-01-10T12:12:21;32.40;;;4.20;;
53293;SDS011;39181;53.440;5.644;2023-01-10T12:14:54;34.65;;;4.35;;
53293;SDS011;39181;53.440;5.644;2023-01-10T12:19:55;32.72;;;4.97;;
53293;SDS011;39181;53.440;5.644;2023-01-10T12:22:38;22.92;;;4.35;;
53293;SDS011;39181;53.440;5.644;2023-01-10T12:25:08;27.23;;;4.68;;
53293;SDS011;39181;53.440;5.644;2023-01-10T12:27:39;29.17;;;5.53;;
53293;SDS011;39181;53.440;5.644;2023-01-10T12:32:41;31.40;;;5.23;;
53293;SDS011;39181;53.440;5.644;2023-01-10T12:35:15;29.52;;;5.85;;
53293;SDS011;39181;53.440;5.644;2023-01-10T12:40:24;30.70;;;5.80;;
53293;SDS011;39181;53.440;5.644;2023-01-10T12:43:02;27.55;;;5.90;;
53293;SDS011;39181;53.440;5.644;2023-01-10T12:45:55;28.80;;;6.93;;
53293;SDS011;39181;53.440;5.644;2023-01-10T12:48:42;29.40;;;5.68;;
53293;SDS011;39181;53.440;5.644;2023-01-10T12:51:19;32.92;;;4.68;;
53293;SDS011;39181;53.440;5.644;2023-01-10T12:53:51;27.83;;;6.55;;
53293;SDS011;39181;53.440;5.644;2023-01-10T12:56:21;30.20;;;5.65;;
53293;SDS011;39181;53.440;5.644;2023-01-10T12:58:51;29.45;;;6.07;;
53293;SDS011;39181;53.440;5.644;2023-01-10T13:01:28;23.73;;;4.97;;
53293;SDS011;39181;53.440;5.644;2023-01-10T13:03:59;30.73;;;6.80;;
53293;SDS011;39181;53.440;5.644;2023-01-10T13:06:34;30.67;;;4.88;;
53293;SDS011;39181;53.440;5.644;2023-01-10T13:11:53;27.98;;;5.00;;
53293;SDS011;39181;53.440;5.644;2023-01-10T13:14:21;30.50;;;5.15;;
53293;SDS011;39181;53.440;5.644;2023-01-10T13:16:55;24.90;;;4.95;;
53293;SDS011;39181;53.440;5.644;2023-01-10T13:19:27;27.23;;;4.95;;
53293;SDS011;39181;53.440;5.644;2023-01-10T13:22:11;25.17;;;5.93;;
53293;SDS011;39181;53.440;5.644;2023-01-10T13:24:53;27.55;;;5.05;;
53293;SDS011;39181;53.440;5.644;2023-01-10T13:29:56;35.85;;;4.82;;
53293;SDS011;39181;53.440;5.644;2023-01-10T13:32:22;26.38;;;4.60;;
53293;SDS011;39181;53.440;5.644;2023-01-10T13:34:52;28.08;;;4.55;;
53293;SDS011;39181;53.440;5.644;2023-01-10T13:37:22;37.30;;;4.75;;
53293;SDS011;39181;53.440;5.644;2023-01-10T13:39:52;24.13;;;4.57;;
53293;SDS011;39181;53.440;5.644;2023-01-10T13:42:24;33.10;;;4.72;;
53293;SDS011;39181;53.440;5.644;2023-01-10T13:52:50;34.47;;;5.60;;
53293;SDS011;39181;53.440;5.644;2023-01-10T13:57:50;23.15;;;4.78;;
53293;SDS011;39181;53.440;5.644;2023-01-10T14:00:22;33.28;;;4.90;;
53293;SDS011;39181;53.440;5.644;2023-01-10T14:03:43;24.67;;;3.47;;
53293;SDS011;39181;53.440;5.644;2023-01-10T14:11:30;29.90;;;4.78;;
53293;SDS011;39181;53.440;5.644;2023-01-10T14:14:21;26.80;;;4.43;;
53293;SDS011;39181;53.440;5.644;2023-01-10T14:17:09;33.55;;;4.20;;
53293;SDS011;39181;53.440;5.644;2023-01-10T14:19:42;29.42;;;3.58;;
53293;SDS011;39181;53.440;5.644;2023-01-10T14:22:30;29.13;;;4.88;;
53293;SDS011;39181;53.440;5.644;2023-01-10T14:25:14;19.13;;;3.58;;
53293;SDS011;39181;53.440;5.644;2023-01-10T14:27:45;27.08;;;3.47;;
53293;SDS011;39181;53.440;5.644;2023-01-10T14:32:46;26.70;;;4.30;;
53293;SDS011;39181;53.440;5.644;2023-01-10T14:35:21;24.00;;;3.83;;
53293;SDS011;39181;53.440;5.644;2023-01-10T14:37:55;21.27;;;3.40;;
53293;SDS011;39181;53.440;5.644;2023-01-10T14:43:08;22.40;;;3.80;;
53293;SDS011;39181;53.440;5.644;2023-01-10T14:45:44;24.35;;;3.20;;
53293;SDS011;39181;53.440;5.644;2023-01-10T14:50:50;24.02;;;3.45;;
53293;SDS011;39181;53.440;5.644;2023-01-10T14:53:26;23.83;;;3.40;;
53293;SDS011;39181;53.440;5.644;2023-01-10T14:55:53;27.70;;;4.47;;
53293;SDS011;39181;53.440;5.644;2023-01-10T14:58:18;32.00;;;3.72;;
53293;SDS011;39181;53.440;5.644;2023-01-10T15:00:46;23.38;;;3.55;;
53293;SDS011;39181;53.440;5.644;2023-01-10T15:03:20;25.98;;;3.15;;
53293;SDS011;39181;53.440;5.644;2023-01-10T15:05:53;29.80;;;3.63;;
53293;SDS011;39181;53.440;5.644;2023-01-10T15:10:52;29.13;;;4.20;;
53293;SDS011;39181;53.440;5.644;2023-01-10T15:13:22;24.42;;;3.83;;
53293;SDS011;39181;53.440;5.644;2023-01-10T15:15:52;19.65;;;3.70;;
53293;SDS011;39181;53.440;5.644;2023-01-10T15:18:28;25.17;;;5.05;;
53293;SDS011;39181;53.440;5.644;2023-01-10T15:21:01;27.48;;;5.18;;
53293;SDS011;39181;53.440;5.644;2023-01-10T15:23:38;33.90;;;4.68;;
53293;SDS011;39181;53.440;5.644;2023-01-10T15:26:09;34.38;;;4.47;;
53293;SDS011;39181;53.440;5.644;2023-01-10T15:29:10;25.85;;;3.80;;
53293;SDS011;39181;53.440;5.644;2023-01-10T15:31:37;25.98;;;3.97;;
53293;SDS011;39181;53.440;5.644;2023-01-10T15:34:07;28.75;;;4.82;;
53293;SDS011;39181;53.440;5.644;2023-01-10T15:36:35;22.25;;;3.38;;
53293;SDS011;39181;53.440;5.644;2023-01-10T15:39:16;35.13;;;4.22;;
53293;SDS011;39181;53.440;5.644;2023-01-10T15:41:45;24.90;;;4.45;;
53293;SDS011;39181;53.440;5.644;2023-01-10T15:44:20;24.58;;;3.45;;
53293;SDS011;39181;53.440;5.644;2023-01-10T15:46:54;30.10;;;4.47;;
53293;SDS011;39181;53.440;5.644;2023-01-10T15:49:24;22.08;;;3.00;;
53293;SDS011;39181;53.440;5.644;2023-01-10T15:51:50;36.85;;;3.67;;
53293;SDS011;39181;53.440;5.644;2023-01-10T15:56:55;26.25;;;4.55;;
53293;SDS011;39181;53.440;5.644;2023-01-10T15:59:45;27.83;;;4.15;;
53293;SDS011;39181;53.440;5.644;2023-01-10T16:02:30;28.30;;;4.18;;
53293;SDS011;39181;53.440;5.644;2023-01-10T16:04:57;22.33;;;3.75;;
53293;SDS011;39181;53.440;5.644;2023-01-10T16:07:34;29.08;;;4.68;;
53293;SDS011;39181;53.440;5.644;2023-01-10T16:10:06;27.50;;;3.55;;
53293;SDS011;39181;53.440;5.644;2023-01-10T16:12:40;29.58;;;3.67;;
53293;SDS011;39181;53.440;5.644;2023-01-10T16:15:26;29.73;;;5.07;;
53293;SDS011;39181;53.440;5.644;2023-01-10T16:17:56;34.40;;;4.20;;
53293;SDS011;39181;53.440;5.644;2023-01-10T16:20:29;23.45;;;4.78;;
53293;SDS011;39181;53.440;5.644;2023-01-10T16:22:58;25.38;;;4.05;;
53293;SDS011;39181;53.440;5.644;2023-01-10T16:25:31;33.67;;;5.40;;
53293;SDS011;39181;53.440;5.644;2023-01-10T16:27:59;23.13;;;3.42;;
53293;SDS011;39181;53.440;5.644;2023-01-10T16:30:26;29.48;;;3.38;;
53293;SDS011;39181;53.440;5.644;2023-01-10T16:32:54;16.77;;;3.63;;